sensor_id;sensor_type;location;lat;lon;timestamp;temperature;humidity
20839;DHT22;10580;51.092;6.828;2022-12-10T00:01:30;-0.70;99.90
20839;DHT22;10580;51.092;6.828;2022-12-10T00:03:56;-0.70;99.90
20839;DHT22;10580;51.092;6.828;2022-12-10T00:06:25;-0.70;99.90
20839;DHT22;10580;51.092;6.828;2022-12-10T00:08:51;-0.70;99.90
20839;DHT22;10580;51.092;6.828;2022-12-10T00:11:19;-0.60;99.90
20839;DHT22;10580;51.092;6.828;2022-12-10T00:13:45;-0.60;99.90
20839;DHT22;10580;51.092;6.828;2022-12-10T00:16:13;-0.60;99.90
20839;DHT22;10580;51.092;6.828;2022-12-10T00:18:40;-0.70;99.90
20839;DHT22;10580;51.092;6.828;2022-12-10T00:21:07;-0.60;99.90
20839;DHT22;10580;51.092;6.828;2022-12-10T00:23:34;-0.60;99.90
20839;DHT22;10580;51.092;6.828;2022-12-10T00:26:07;-0.60;99.90
20839;DHT22;10580;51.092;6.828;2022-12-10T00:28:34;-0.50;99.90
20839;DHT22;10580;51.092;6.828;2022-12-10T00:31:11;-0.50;99.90
20839;DHT22;10580;51.092;6.828;2022-12-10T00:33:37;-0.60;99.90
20839;DHT22;10580;51.092;6.828;2022-12-10T00:36:09;-0.60;99.90
20839;DHT22;10580;51.092;6.828;2022-12-10T00:38:35;-0.60;99.90
20839;DHT22;10580;51.092;6.828;2022-12-10T00:41:00;-0.60;99.90
20839;DHT22;10580;51.092;6.828;2022-12-10T00:43:27;-0.60;99.90
20839;DHT22;10580;51.092;6.828;2022-12-10T00:45:53;-0.60;99.90
20839;DHT22;10580;51.092;6.828;2022-12-10T00:48:19;-0.70;99.90
20839;DHT22;10580;51.092;6.828;2022-12-10T00:50:54;-0.70;99.90
20839;DHT22;10580;51.092;6.828;2022-12-10T00:53:20;-0.70;99.90
20839;DHT22;10580;51.092;6.828;2022-12-10T00:55:45;-0.70;99.90
20839;DHT22;10580;51.092;6.828;2022-12-10T00:58:11;-0.80;99.90
20839;DHT22;10580;51.092;6.828;2022-12-10T01:00:36;-0.80;99.90
20839;DHT22;10580;51.092;6.828;2022-12-10T01:03:02;-0.80;99.90
20839;DHT22;10580;51.092;6.828;2022-12-10T01:05:27;-0.90;99.90
20839;DHT22;10580;51.092;6.828;2022-12-10T01:07:53;-0.90;99.90
20839;DHT22;10580;51.092;6.828;2022-12-10T01:10:18;-0.90;99.90
20839;DHT22;10580;51.092;6.828;2022-12-10T01:12:44;-1.00;99.90
20839;DHT22;10580;51.092;6.828;2022-12-10T01:15:11;-1.00;99.90
20839;DHT22;10580;51.092;6.828;2022-12-10T01:17:36;-1.00;99.90
20839;DHT22;10580;51.092;6.828;2022-12-10T01:20:02;-1.00;99.90
20839;DHT22;10580;51.092;6.828;2022-12-10T01:22:28;-1.00;99.90
20839;DHT22;10580;51.092;6.828;2022-12-10T01:24:54;-0.90;99.90
20839;DHT22;10580;51.092;6.828;2022-12-10T01:27:19;-0.90;99.90
20839;DHT22;10580;51.092;6.828;2022-12-10T01:29:45;-1.00;99.90
20839;DHT22;10580;51.092;6.828;2022-12-10T01:32:11;-1.00;99.90
20839;DHT22;10580;51.092;6.828;2022-12-10T01:34:36;-1.00;99.90
20839;DHT22;10580;51.092;6.828;2022-12-10T01:37:02;-1.10;99.90
20839;DHT22;10580;51.092;6.828;2022-12-10T01:39:27;-1.10;99.90
20839;DHT22;10580;51.092;6.828;2022-12-10T01:41:58;-1.10;99.90
20839;DHT22;10580;51.092;6.828;2022-12-10T01:46:52;-1.10;99.90
20839;DHT22;10580;51.092;6.828;2022-12-10T01:49:21;-1.10;99.90
20839;DHT22;10580;51.092;6.828;2022-12-10T01:51:50;-1.10;99.90
20839;DHT22;10580;51.092;6.828;2022-12-10T01:54:28;-1.10;99.90
20839;DHT22;10580;51.092;6.828;2022-12-10T01:57:06;-1.20;99.90
20839;DHT22;10580;51.092;6.828;2022-12-10T01:59:34;-1.30;99.90
20839;DHT22;10580;51.092;6.828;2022-12-10T02:02:07;-1.30;99.90
20839;DHT22;10580;51.092;6.828;2022-12-10T02:12:51;-1.20;99.90
20839;DHT22;10580;51.092;6.828;2022-12-10T02:15:22;-1.20;99.90
20839;DHT22;10580;51.092;6.828;2022-12-10T02:17:57;-1.20;99.90
20839;DHT22;10580;51.092;6.828;2022-12-10T02:20:38;-1.20;99.90
20839;DHT22;10580;51.092;6.828;2022-12-10T02:23:12;-1.30;99.90
20839;DHT22;10580;51.092;6.828;2022-12-10T02:26:06;-1.30;99.90
20839;DHT22;10580;51.092;6.828;2022-12-10T02:28:44;-1.30;99.90
20839;DHT22;10580;51.092;6.828;2022-12-10T02:31:15;-1.30;99.90
20839;DHT22;10580;51.092;6.828;2022-12-10T02:33:46;-1.30;99.90
20839;DHT22;10580;51.092;6.828;2022-12-10T02:36:13;-1.30;99.90
20839;DHT22;10580;51.092;6.828;2022-12-10T02:38:41;-1.30;99.90
20839;DHT22;10580;51.092;6.828;2022-12-10T02:41:16;-1.30;99.90
20839;DHT22;10580;51.092;6.828;2022-12-10T02:43:45;-1.40;99.90
20839;DHT22;10580;51.092;6.828;2022-12-10T02:46:11;-1.40;99.90
20839;DHT22;10580;51.092;6.828;2022-12-10T02:48:38;-1.30;99.90
20839;DHT22;10580;51.092;6.828;2022-12-10T02:51:05;-1.30;99.90
20839;DHT22;10580;51.092;6.828;2022-12-10T02:53:30;-1.20;99.90
20839;DHT22;10580;51.092;6.828;2022-12-10T03:03:45;-1.10;99.90
20839;DHT22;10580;51.092;6.828;2022-12-10T03:06:27;-1.00;99.90
20839;DHT22;10580;51.092;6.828;2022-12-10T03:08:59;-0.90;99.90
20839;DHT22;10580;51.092;6.828;2022-12-10T03:11:28;-0.90;99.90
20839;DHT22;10580;51.092;6.828;2022-12-10T03:14:04;-0.90;99.90
20839;DHT22;10580;51.092;6.828;2022-12-10T03:16:54;-0.90;99.90
20839;DHT22;10580;51.092;6.828;2022-12-10T03:19:23;-0.80;99.90
20839;DHT22;10580;51.092;6.828;2022-12-10T03:21:52;-0.70;99.90
20839;DHT22;10580;51.092;6.828;2022-12-10T03:24:19;-0.60;99.90
20839;DHT22;10580;51.092;6.828;2022-12-10T03:26:47;-0.50;99.90
20839;DHT22;10580;51.092;6.828;2022-12-10T03:29:23;-0.40;99.90
20839;DHT22;10580;51.092;6.828;2022-12-10T03:31:51;-0.30;99.90
20839;DHT22;10580;51.092;6.828;2022-12-10T03:34:18;-0.30;99.90
20839;DHT22;10580;51.092;6.828;2022-12-10T03:36:44;-0.30;99.90
20839;DHT22;10580;51.092;6.828;2022-12-10T03:39:10;-0.20;99.90
20839;DHT22;10580;51.092;6.828;2022-12-10T03:41:36;-0.20;99.90
20839;DHT22;10580;51.092;6.828;2022-12-10T03:44:02;-0.20;99.90
20839;DHT22;10580;51.092;6.828;2022-12-10T03:46:29;-0.20;99.90
20839;DHT22;10580;51.092;6.828;2022-12-10T03:48:56;-0.20;99.90
20839;DHT22;10580;51.092;6.828;2022-12-10T03:51:22;-0.20;99.90
20839;DHT22;10580;51.092;6.828;2022-12-10T03:53:47;-0.20;99.90
20839;DHT22;10580;51.092;6.828;2022-12-10T03:56:17;-0.10;99.90
20839;DHT22;10580;51.092;6.828;2022-12-10T03:58:43;-0.10;99.90
20839;DHT22;10580;51.092;6.828;2022-12-10T04:01:09;-0.20;99.90
20839;DHT22;10580;51.092;6.828;2022-12-10T04:03:36;-0.20;99.90
20839;DHT22;10580;51.092;6.828;2022-12-10T04:06:04;-0.10;99.90
20839;DHT22;10580;51.092;6.828;2022-12-10T04:08:30;-0.10;99.90
20839;DHT22;10580;51.092;6.828;2022-12-10T04:11:04;0.00;99.90
20839;DHT22;10580;51.092;6.828;2022-12-10T04:13:34;0.00;99.90
20839;DHT22;10580;51.092;6.828;2022-12-10T04:16:19;0.10;99.90
20839;DHT22;10580;51.092;6.828;2022-12-10T04:18:52;0.10;99.90
20839;DHT22;10580;51.092;6.828;2022-12-10T04:21:17;0.00;99.90
20839;DHT22;10580;51.092;6.828;2022-12-10T04:24:01;0.00;99.90
20839;DHT22;10580;51.092;6.828;2022-12-10T04:26:45;0.00;99.90
20839;DHT22;10580;51.092;6.828;2022-12-10T04:29:21;0.10;99.90
20839;DHT22;10580;51.092;6.828;2022-12-10T04:31:47;0.10;99.90
20839;DHT22;10580;51.092;6.828;2022-12-10T04:34:12;0.00;99.90
20839;DHT22;10580;51.092;6.828;2022-12-10T04:36:38;0.10;99.90
20839;DHT22;10580;51.092;6.828;2022-12-10T04:39:03;0.10;99.90
20839;DHT22;10580;51.092;6.828;2022-12-10T04:41:29;0.10;99.90
20839;DHT22;10580;51.092;6.828;2022-12-10T04:43:55;0.10;99.90
20839;DHT22;10580;51.092;6.828;2022-12-10T04:46:20;0.10;99.90
20839;DHT22;10580;51.092;6.828;2022-12-10T04:48:46;0.10;99.90
20839;DHT22;10580;51.092;6.828;2022-12-10T04:51:11;0.00;99.90
20839;DHT22;10580;51.092;6.828;2022-12-10T04:53:37;0.00;99.90
20839;DHT22;10580;51.092;6.828;2022-12-10T04:56:02;0.00;99.90
20839;DHT22;10580;51.092;6.828;2022-12-10T04:58:30;-0.10;99.90
20839;DHT22;10580;51.092;6.828;2022-12-10T05:01:04;-0.10;99.90
20839;DHT22;10580;51.092;6.828;2022-12-10T05:03:30;0.00;99.90
20839;DHT22;10580;51.092;6.828;2022-12-10T05:06:01;-0.10;99.90
20839;DHT22;10580;51.092;6.828;2022-12-10T05:08:27;-0.10;99.90
20839;DHT22;10580;51.092;6.828;2022-12-10T05:10:53;-0.10;99.90
20839;DHT22;10580;51.092;6.828;2022-12-10T05:13:19;0.00;99.90
20839;DHT22;10580;51.092;6.828;2022-12-10T05:15:44;0.00;99.90
20839;DHT22;10580;51.092;6.828;2022-12-10T05:18:10;0.00;99.90
20839;DHT22;10580;51.092;6.828;2022-12-10T05:20:35;0.00;99.90
20839;DHT22;10580;51.092;6.828;2022-12-10T05:23:01;0.00;99.90
20839;DHT22;10580;51.092;6.828;2022-12-10T05:25:45;0.00;99.90
20839;DHT22;10580;51.092;6.828;2022-12-10T05:28:21;0.00;99.90
20839;DHT22;10580;51.092;6.828;2022-12-10T05:30:47;0.00;99.90
20839;DHT22;10580;51.092;6.828;2022-12-10T05:33:13;0.00;99.90
20839;DHT22;10580;51.092;6.828;2022-12-10T05:35:39;0.10;99.90
20839;DHT22;10580;51.092;6.828;2022-12-10T05:38:04;0.00;99.90
20839;DHT22;10580;51.092;6.828;2022-12-10T05:40:36;0.00;99.90
20839;DHT22;10580;51.092;6.828;2022-12-10T05:43:02;0.00;99.90
20839;DHT22;10580;51.092;6.828;2022-12-10T05:45:28;0.00;99.90
20839;DHT22;10580;51.092;6.828;2022-12-10T05:47:53;0.10;99.90
20839;DHT22;10580;51.092;6.828;2022-12-10T05:50:19;0.10;99.90
20839;DHT22;10580;51.092;6.828;2022-12-10T05:52:45;0.10;99.90
20839;DHT22;10580;51.092;6.828;2022-12-10T05:55:10;0.00;99.90
20839;DHT22;10580;51.092;6.828;2022-12-10T05:57:37;0.00;99.90
20839;DHT22;10580;51.092;6.828;2022-12-10T06:00:06;0.10;99.90
20839;DHT22;10580;51.092;6.828;2022-12-10T06:02:35;0.10;99.90
20839;DHT22;10580;51.092;6.828;2022-12-10T06:05:01;0.20;99.90
20839;DHT22;10580;51.092;6.828;2022-12-10T06:07:26;0.20;99.90
20839;DHT22;10580;51.092;6.828;2022-12-10T06:09:52;0.20;99.90
20839;DHT22;10580;51.092;6.828;2022-12-10T06:12:17;0.30;99.90
20839;DHT22;10580;51.092;6.828;2022-12-10T06:14:43;0.20;99.90
20839;DHT22;10580;51.092;6.828;2022-12-10T06:17:09;0.20;99.90
20839;DHT22;10580;51.092;6.828;2022-12-10T06:19:34;0.20;99.90
20839;DHT22;10580;51.092;6.828;2022-12-10T06:22:00;0.20;99.90
20839;DHT22;10580;51.092;6.828;2022-12-10T06:24:26;0.10;99.90
20839;DHT22;10580;51.092;6.828;2022-12-10T06:26:52;0.10;99.90
20839;DHT22;10580;51.092;6.828;2022-12-10T06:29:17;0.10;99.90
20839;DHT22;10580;51.092;6.828;2022-12-10T06:31:43;0.00;99.90
20839;DHT22;10580;51.092;6.828;2022-12-10T06:34:09;0.00;99.90
20839;DHT22;10580;51.092;6.828;2022-12-10T06:36:34;0.00;99.90
20839;DHT22;10580;51.092;6.828;2022-12-10T06:39:00;0.00;99.90
20839;DHT22;10580;51.092;6.828;2022-12-10T06:41:26;0.10;99.90
20839;DHT22;10580;51.092;6.828;2022-12-10T06:43:51;0.10;99.90
20839;DHT22;10580;51.092;6.828;2022-12-10T06:46:19;0.10;99.90
20839;DHT22;10580;51.092;6.828;2022-12-10T06:48:46;0.10;99.90
20839;DHT22;10580;51.092;6.828;2022-12-10T06:51:12;0.10;99.90
20839;DHT22;10580;51.092;6.828;2022-12-10T06:53:40;0.10;99.90
20839;DHT22;10580;51.092;6.828;2022-12-10T06:56:06;0.10;99.90
20839;DHT22;10580;51.092;6.828;2022-12-10T06:58:33;0.10;99.90
20839;DHT22;10580;51.092;6.828;2022-12-10T07:01:11;0.20;99.90
20839;DHT22;10580;51.092;6.828;2022-12-10T07:03:37;0.20;99.90
20839;DHT22;10580;51.092;6.828;2022-12-10T07:06:12;0.20;99.90
20839;DHT22;10580;51.092;6.828;2022-12-10T07:08:43;0.10;99.90
20839;DHT22;10580;51.092;6.828;2022-12-10T07:11:11;0.20;99.90
20839;DHT22;10580;51.092;6.828;2022-12-10T07:13:37;0.00;99.90
20839;DHT22;10580;51.092;6.828;2022-12-10T07:16:11;0.00;99.90
20839;DHT22;10580;51.092;6.828;2022-12-10T07:18:36;0.00;99.90
20839;DHT22;10580;51.092;6.828;2022-12-10T07:21:05;-0.10;99.90
20839;DHT22;10580;51.092;6.828;2022-12-10T07:23:40;-0.10;99.90
20839;DHT22;10580;51.092;6.828;2022-12-10T07:26:10;0.00;99.90
20839;DHT22;10580;51.092;6.828;2022-12-10T07:28:36;0.00;99.90
20839;DHT22;10580;51.092;6.828;2022-12-10T07:31:06;0.00;99.90
20839;DHT22;10580;51.092;6.828;2022-12-10T07:33:32;0.00;99.90
20839;DHT22;10580;51.092;6.828;2022-12-10T07:35:58;0.10;99.90
20839;DHT22;10580;51.092;6.828;2022-12-10T07:38:24;0.10;99.90
20839;DHT22;10580;51.092;6.828;2022-12-10T07:40:55;0.10;99.90
20839;DHT22;10580;51.092;6.828;2022-12-10T07:43:23;0.10;99.90
20839;DHT22;10580;51.092;6.828;2022-12-10T07:45:48;0.00;99.90
20839;DHT22;10580;51.092;6.828;2022-12-10T07:48:14;0.00;99.90
20839;DHT22;10580;51.092;6.828;2022-12-10T07:50:40;0.00;99.90
20839;DHT22;10580;51.092;6.828;2022-12-10T07:53:06;0.00;99.90
20839;DHT22;10580;51.092;6.828;2022-12-10T07:55:34;0.00;99.90
20839;DHT22;10580;51.092;6.828;2022-12-10T07:58:02;0.00;99.90
20839;DHT22;10580;51.092;6.828;2022-12-10T08:00:28;0.00;99.90
20839;DHT22;10580;51.092;6.828;2022-12-10T08:02:53;0.00;99.90
20839;DHT22;10580;51.092;6.828;2022-12-10T08:05:19;0.00;99.90
20839;DHT22;10580;51.092;6.828;2022-12-10T08:07:45;0.10;99.90
20839;DHT22;10580;51.092;6.828;2022-12-10T08:10:11;0.10;99.90
20839;DHT22;10580;51.092;6.828;2022-12-10T08:12:36;0.10;99.90
20839;DHT22;10580;51.092;6.828;2022-12-10T08:15:02;0.10;99.90
20839;DHT22;10580;51.092;6.828;2022-12-10T08:17:28;0.10;99.90
20839;DHT22;10580;51.092;6.828;2022-12-10T08:19:53;0.10;99.90
20839;DHT22;10580;51.092;6.828;2022-12-10T08:22:20;0.10;99.90
20839;DHT22;10580;51.092;6.828;2022-12-10T08:24:46;0.10;99.90
20839;DHT22;10580;51.092;6.828;2022-12-10T08:27:11;0.10;99.90
20839;DHT22;10580;51.092;6.828;2022-12-10T08:29:37;0.10;99.90
20839;DHT22;10580;51.092;6.828;2022-12-10T08:32:03;0.20;99.90
20839;DHT22;10580;51.092;6.828;2022-12-10T08:34:28;0.10;99.90
20839;DHT22;10580;51.092;6.828;2022-12-10T08:36:54;0.10;99.90
20839;DHT22;10580;51.092;6.828;2022-12-10T08:39:19;0.00;99.90
20839;DHT22;10580;51.092;6.828;2022-12-10T08:41:45;0.00;99.90
20839;DHT22;10580;51.092;6.828;2022-12-10T08:44:12;0.00;99.90
20839;DHT22;10580;51.092;6.828;2022-12-10T08:46:38;0.00;99.90
20839;DHT22;10580;51.092;6.828;2022-12-10T08:49:04;0.10;99.90
20839;DHT22;10580;51.092;6.828;2022-12-10T08:51:32;0.00;99.90
20839;DHT22;10580;51.092;6.828;2022-12-10T08:53:57;0.00;99.90
20839;DHT22;10580;51.092;6.828;2022-12-10T08:56:23;0.00;99.90
20839;DHT22;10580;51.092;6.828;2022-12-10T08:58:49;0.00;99.90
20839;DHT22;10580;51.092;6.828;2022-12-10T09:01:16;0.10;99.90
20839;DHT22;10580;51.092;6.828;2022-12-10T09:03:42;0.10;99.90
20839;DHT22;10580;51.092;6.828;2022-12-10T09:06:11;0.10;99.90
20839;DHT22;10580;51.092;6.828;2022-12-10T09:08:38;0.00;99.90
20839;DHT22;10580;51.092;6.828;2022-12-10T09:11:07;0.00;99.90
20839;DHT22;10580;51.092;6.828;2022-12-10T09:13:33;0.00;99.90
20839;DHT22;10580;51.092;6.828;2022-12-10T09:15:59;0.00;99.90
20839;DHT22;10580;51.092;6.828;2022-12-10T09:18:24;0.00;99.90
20839;DHT22;10580;51.092;6.828;2022-12-10T09:20:50;0.10;99.90
20839;DHT22;10580;51.092;6.828;2022-12-10T09:23:16;0.10;99.90
20839;DHT22;10580;51.092;6.828;2022-12-10T09:25:41;0.10;99.90
20839;DHT22;10580;51.092;6.828;2022-12-10T09:28:07;0.10;99.90
20839;DHT22;10580;51.092;6.828;2022-12-10T09:30:32;0.10;99.90
20839;DHT22;10580;51.092;6.828;2022-12-10T09:32:58;0.00;99.90
20839;DHT22;10580;51.092;6.828;2022-12-10T09:35:24;0.00;99.90
20839;DHT22;10580;51.092;6.828;2022-12-10T09:37:49;-0.10;99.90
20839;DHT22;10580;51.092;6.828;2022-12-10T09:40:17;0.00;99.90
20839;DHT22;10580;51.092;6.828;2022-12-10T09:42:55;0.00;99.90
20839;DHT22;10580;51.092;6.828;2022-12-10T09:45:39;0.00;99.90
20839;DHT22;10580;51.092;6.828;2022-12-10T09:48:59;0.10;99.90
20839;DHT22;10580;51.092;6.828;2022-12-10T09:51:21;0.00;99.90
20839;DHT22;10580;51.092;6.828;2022-12-10T09:53:49;0.00;99.90
20839;DHT22;10580;51.092;6.828;2022-12-10T09:56:23;-0.20;99.90
20839;DHT22;10580;51.092;6.828;2022-12-10T09:58:50;-0.10;99.90
20839;DHT22;10580;51.092;6.828;2022-12-10T10:01:19;-0.10;99.90
20839;DHT22;10580;51.092;6.828;2022-12-10T10:03:45;-0.10;99.90
20839;DHT22;10580;51.092;6.828;2022-12-10T10:06:13;-0.10;99.90
20839;DHT22;10580;51.092;6.828;2022-12-10T10:08:57;0.00;99.90
20839;DHT22;10580;51.092;6.828;2022-12-10T10:11:28;0.00;99.90
20839;DHT22;10580;51.092;6.828;2022-12-10T10:14:19;0.20;99.90
20839;DHT22;10580;51.092;6.828;2022-12-10T10:16:53;0.30;99.90
20839;DHT22;10580;51.092;6.828;2022-12-10T10:19:31;0.30;99.90
20839;DHT22;10580;51.092;6.828;2022-12-10T10:22:03;0.40;99.90
20839;DHT22;10580;51.092;6.828;2022-12-10T10:24:35;0.30;99.90
20839;DHT22;10580;51.092;6.828;2022-12-10T10:27:16;0.40;99.90
20839;DHT22;10580;51.092;6.828;2022-12-10T10:30:01;0.50;99.90
20839;DHT22;10580;51.092;6.828;2022-12-10T10:32:47;0.40;99.90
20839;DHT22;10580;51.092;6.828;2022-12-10T10:35:32;0.40;99.90
20839;DHT22;10580;51.092;6.828;2022-12-10T10:38:01;0.50;99.90
20839;DHT22;10580;51.092;6.828;2022-12-10T10:40:33;0.60;99.90
20839;DHT22;10580;51.092;6.828;2022-12-10T10:43:04;0.70;99.90
20839;DHT22;10580;51.092;6.828;2022-12-10T10:48:13;0.90;99.90
20839;DHT22;10580;51.092;6.828;2022-12-10T10:50:45;0.80;99.90
20839;DHT22;10580;51.092;6.828;2022-12-10T11:01:49;1.00;99.90
20839;DHT22;10580;51.092;6.828;2022-12-10T11:04:18;0.90;99.90
20839;DHT22;10580;51.092;6.828;2022-12-10T11:06:44;0.90;99.90
20839;DHT22;10580;51.092;6.828;2022-12-10T11:09:21;1.00;99.90
20839;DHT22;10580;51.092;6.828;2022-12-10T11:11:52;1.00;99.90
20839;DHT22;10580;51.092;6.828;2022-12-10T11:14:46;1.00;99.90
20839;DHT22;10580;51.092;6.828;2022-12-10T11:19:59;1.10;99.90
20839;DHT22;10580;51.092;6.828;2022-12-10T11:22:29;1.10;99.90
20839;DHT22;10580;51.092;6.828;2022-12-10T11:24:56;1.20;99.90
20839;DHT22;10580;51.092;6.828;2022-12-10T11:30:17;1.30;99.90
20839;DHT22;10580;51.092;6.828;2022-12-10T11:33:27;1.20;99.90
20839;DHT22;10580;51.092;6.828;2022-12-10T11:36:15;1.30;99.90
20839;DHT22;10580;51.092;6.828;2022-12-10T11:41:52;1.40;99.90
20839;DHT22;10580;51.092;6.828;2022-12-10T11:44:23;1.60;99.90
20839;DHT22;10580;51.092;6.828;2022-12-10T11:47:18;1.60;99.90
20839;DHT22;10580;51.092;6.828;2022-12-10T11:49:52;1.60;99.90
20839;DHT22;10580;51.092;6.828;2022-12-10T11:55:32;1.50;99.90
20839;DHT22;10580;51.092;6.828;2022-12-10T12:01:13;1.40;99.90
20839;DHT22;10580;51.092;6.828;2022-12-10T12:09:47;1.30;99.90
20839;DHT22;10580;51.092;6.828;2022-12-10T12:12:35;1.20;99.90
20839;DHT22;10580;51.092;6.828;2022-12-10T12:15:21;1.20;99.90
20839;DHT22;10580;51.092;6.828;2022-12-10T12:17:53;1.30;99.90
20839;DHT22;10580;51.092;6.828;2022-12-10T12:20:25;1.40;99.90
20839;DHT22;10580;51.092;6.828;2022-12-10T12:25:47;1.40;99.90
20839;DHT22;10580;51.092;6.828;2022-12-10T12:28:25;1.50;99.90
20839;DHT22;10580;51.092;6.828;2022-12-10T12:31:12;1.50;99.90
20839;DHT22;10580;51.092;6.828;2022-12-10T12:34:00;1.50;99.90
20839;DHT22;10580;51.092;6.828;2022-12-10T12:36:30;1.50;99.90
20839;DHT22;10580;51.092;6.828;2022-12-10T12:44:12;1.60;99.90
20839;DHT22;10580;51.092;6.828;2022-12-10T12:46:47;1.60;99.90
20839;DHT22;10580;51.092;6.828;2022-12-10T12:49:35;1.60;99.90
20839;DHT22;10580;51.092;6.828;2022-12-10T12:52:26;1.70;99.90
20839;DHT22;10580;51.092;6.828;2022-12-10T12:55:00;1.70;99.90
20839;DHT22;10580;51.092;6.828;2022-12-10T12:57:30;1.70;99.90
20839;DHT22;10580;51.092;6.828;2022-12-10T13:00:08;1.70;99.90
20839;DHT22;10580;51.092;6.828;2022-12-10T13:03:00;1.70;99.90
20839;DHT22;10580;51.092;6.828;2022-12-10T13:05:36;1.60;99.90
20839;DHT22;10580;51.092;6.828;2022-12-10T13:10:59;1.60;99.90
20839;DHT22;10580;51.092;6.828;2022-12-10T13:13:34;1.60;99.90
20839;DHT22;10580;51.092;6.828;2022-12-10T13:32:21;1.50;99.90
20839;DHT22;10580;51.092;6.828;2022-12-10T13:46:49;1.50;99.90
20839;DHT22;10580;51.092;6.828;2022-12-10T13:49:18;1.50;99.90
20839;DHT22;10580;51.092;6.828;2022-12-10T13:52:07;1.60;99.90
20839;DHT22;10580;51.092;6.828;2022-12-10T14:00:20;1.60;99.90
20839;DHT22;10580;51.092;6.828;2022-12-10T14:03:59;1.70;99.90
20839;DHT22;10580;51.092;6.828;2022-12-10T14:06:11;1.70;99.90
20839;DHT22;10580;51.092;6.828;2022-12-10T14:08:39;1.70;99.90
20839;DHT22;10580;51.092;6.828;2022-12-10T14:11:20;1.70;99.90
20839;DHT22;10580;51.092;6.828;2022-12-10T14:13:52;1.70;99.90
20839;DHT22;10580;51.092;6.828;2022-12-10T14:16:22;1.70;99.90
20839;DHT22;10580;51.092;6.828;2022-12-10T14:18:55;1.80;99.90
20839;DHT22;10580;51.092;6.828;2022-12-10T14:21:22;1.80;99.90
20839;DHT22;10580;51.092;6.828;2022-12-10T14:23:50;1.80;99.90
20839;DHT22;10580;51.092;6.828;2022-12-10T14:26:18;1.80;99.90
20839;DHT22;10580;51.092;6.828;2022-12-10T14:28:47;1.70;99.90
20839;DHT22;10580;51.092;6.828;2022-12-10T14:31:17;1.60;99.90
20839;DHT22;10580;51.092;6.828;2022-12-10T14:33:45;1.60;99.90
20839;DHT22;10580;51.092;6.828;2022-12-10T14:36:20;1.60;99.90
20839;DHT22;10580;51.092;6.828;2022-12-10T14:38:47;1.60;99.90
20839;DHT22;10580;51.092;6.828;2022-12-10T14:41:17;1.60;99.90
20839;DHT22;10580;51.092;6.828;2022-12-10T14:43:44;1.50;99.90
20839;DHT22;10580;51.092;6.828;2022-12-10T14:46:17;1.50;99.90
20839;DHT22;10580;51.092;6.828;2022-12-10T14:48:43;1.40;99.90
20839;DHT22;10580;51.092;6.828;2022-12-10T14:51:17;1.40;99.90
20839;DHT22;10580;51.092;6.828;2022-12-10T14:53:44;1.50;99.90
20839;DHT22;10580;51.092;6.828;2022-12-10T14:56:17;1.60;99.90
20839;DHT22;10580;51.092;6.828;2022-12-10T14:58:52;1.60;99.90
20839;DHT22;10580;51.092;6.828;2022-12-10T15:01:35;1.50;99.90
20839;DHT22;10580;51.092;6.828;2022-12-10T15:04:03;1.50;99.90
20839;DHT22;10580;51.092;6.828;2022-12-10T15:06:34;1.50;99.90
20839;DHT22;10580;51.092;6.828;2022-12-10T15:09:00;1.50;99.90
20839;DHT22;10580;51.092;6.828;2022-12-10T15:11:27;1.50;99.90
20839;DHT22;10580;51.092;6.828;2022-12-10T15:14:01;1.40;99.90
20839;DHT22;10580;51.092;6.828;2022-12-10T15:16:31;1.50;99.90
20839;DHT22;10580;51.092;6.828;2022-12-10T15:19:33;1.50;99.90
20839;DHT22;10580;51.092;6.828;2022-12-10T15:22:20;1.50;99.90
20839;DHT22;10580;51.092;6.828;2022-12-10T15:24:46;1.50;99.90
20839;DHT22;10580;51.092;6.828;2022-12-10T15:27:25;1.40;99.90
20839;DHT22;10580;51.092;6.828;2022-12-10T15:29:51;1.40;99.90
20839;DHT22;10580;51.092;6.828;2022-12-10T15:32:28;1.40;99.90
20839;DHT22;10580;51.092;6.828;2022-12-10T15:35:05;1.40;99.90
20839;DHT22;10580;51.092;6.828;2022-12-10T15:37:39;1.40;99.90
20839;DHT22;10580;51.092;6.828;2022-12-10T15:40:19;1.40;99.90
20839;DHT22;10580;51.092;6.828;2022-12-10T15:42:46;1.40;99.90
20839;DHT22;10580;51.092;6.828;2022-12-10T15:45:22;1.40;99.90
20839;DHT22;10580;51.092;6.828;2022-12-10T15:47:48;1.40;99.90
20839;DHT22;10580;51.092;6.828;2022-12-10T15:50:15;1.30;99.90
20839;DHT22;10580;51.092;6.828;2022-12-10T15:52:41;1.20;99.90
20839;DHT22;10580;51.092;6.828;2022-12-10T15:55:07;1.20;99.90
20839;DHT22;10580;51.092;6.828;2022-12-10T15:57:35;1.20;99.90
20839;DHT22;10580;51.092;6.828;2022-12-10T16:00:08;1.20;99.90
20839;DHT22;10580;51.092;6.828;2022-12-10T16:02:48;1.20;99.90
20839;DHT22;10580;51.092;6.828;2022-12-10T16:05:22;1.20;99.90
20839;DHT22;10580;51.092;6.828;2022-12-10T16:07:50;1.20;99.90
20839;DHT22;10580;51.092;6.828;2022-12-10T16:10:18;1.10;99.90
20839;DHT22;10580;51.092;6.828;2022-12-10T16:12:47;1.20;99.90
20839;DHT22;10580;51.092;6.828;2022-12-10T16:15:24;1.10;99.90
20839;DHT22;10580;51.092;6.828;2022-12-10T16:17:51;1.20;99.90
20839;DHT22;10580;51.092;6.828;2022-12-10T16:20:25;1.20;99.90
20839;DHT22;10580;51.092;6.828;2022-12-10T16:22:55;1.20;99.90
20839;DHT22;10580;51.092;6.828;2022-12-10T16:25:22;1.20;99.90
20839;DHT22;10580;51.092;6.828;2022-12-10T16:27:48;1.30;99.90
20839;DHT22;10580;51.092;6.828;2022-12-10T16:32:40;1.30;99.90
20839;DHT22;10580;51.092;6.828;2022-12-10T16:35:06;1.40;99.90
20839;DHT22;10580;51.092;6.828;2022-12-10T16:37:32;1.30;99.90
20839;DHT22;10580;51.092;6.828;2022-12-10T16:39:58;1.30;99.90
20839;DHT22;10580;51.092;6.828;2022-12-10T16:42:23;1.30;99.90
20839;DHT22;10580;51.092;6.828;2022-12-10T16:44:49;1.30;99.90
20839;DHT22;10580;51.092;6.828;2022-12-10T16:47:15;1.30;99.90
20839;DHT22;10580;51.092;6.828;2022-12-10T16:49:40;1.30;99.90
20839;DHT22;10580;51.092;6.828;2022-12-10T16:52:06;1.30;99.90
20839;DHT22;10580;51.092;6.828;2022-12-10T16:54:32;1.30;99.90
20839;DHT22;10580;51.092;6.828;2022-12-10T16:56:57;1.30;99.90
20839;DHT22;10580;51.092;6.828;2022-12-10T16:59:23;1.30;99.90
20839;DHT22;10580;51.092;6.828;2022-12-10T17:01:48;1.40;99.90
20839;DHT22;10580;51.092;6.828;2022-12-10T17:04:14;1.40;99.90
20839;DHT22;10580;51.092;6.828;2022-12-10T17:06:39;1.40;99.90
20839;DHT22;10580;51.092;6.828;2022-12-10T17:09:05;1.30;99.90
20839;DHT22;10580;51.092;6.828;2022-12-10T17:11:38;1.20;99.90
20839;DHT22;10580;51.092;6.828;2022-12-10T17:14:28;1.10;99.90
20839;DHT22;10580;51.092;6.828;2022-12-10T17:16:56;1.10;99.90
20839;DHT22;10580;51.092;6.828;2022-12-10T17:19:24;1.20;99.90
20839;DHT22;10580;51.092;6.828;2022-12-10T17:21:51;1.10;99.90
20839;DHT22;10580;51.092;6.828;2022-12-10T17:24:17;1.10;99.90
20839;DHT22;10580;51.092;6.828;2022-12-10T17:26:45;1.20;99.90
20839;DHT22;10580;51.092;6.828;2022-12-10T17:29:35;1.10;99.90
20839;DHT22;10580;51.092;6.828;2022-12-10T17:32:03;1.10;99.90
20839;DHT22;10580;51.092;6.828;2022-12-10T17:34:29;1.10;99.90
20839;DHT22;10580;51.092;6.828;2022-12-10T17:36:55;1.10;99.90
20839;DHT22;10580;51.092;6.828;2022-12-10T17:39:24;1.10;99.90